Cross Plains, WI (53528)

1:17 AM CDT on April 28, 2017 (GMT -0500)
St. Francis SubDivision | | Change Station
Active Advisory: Frost Advisory

Elev 928 ft 43.12 °N, 89.64 °W | Updated 8 seconds ago

Mostly Cloudy
Mostly Cloudy
38.8 °F
Feels Like 39 °F
N
0.0
Wind Variable Wind from West
Gusts 3.0 mph

Today
High -- | Low -- °F
--% Chance of Precip.
Yesterday
High -- | Low -- °F
Precip. -- in
Pressure 29.82 in
Visibility 10.0 miles
Clouds Overcast 2500 ft
Windchill 39 °F
Dew Point 33 °F
Humidity 80%
Rainfall 0.00 in
Snow Depth Not available.
5:56 AM 7:56 PM
Waxing Crescent, 5% visible
METAR KC29 280555Z AUTO 26008G16KT 10SM OVC025 04/00 A2982 RMK AO1 T00411004 10052 20040 400850026
Pressure 29.82 in
Visibility 10.0 miles
Clouds Overcast 2500 ft
Windchill 39 °F
Dew Point 33 °F
Humidity 80%
Rainfall 0.00 in
Snow Depth Not available.
5:56 AM 7:56 PM
Waxing Crescent, 5% visible
METAR KC29 280555Z AUTO 26008G16KT 10SM OVC025 04/00 A2982 RMK AO1 T00411004 10052 20040 400850026

Get Your Daily Forecast Email!

Thanks for signing up!

Be on the lookout for a verification email in your inbox.

You'll start receiving severe weather alerts in your inbox..

×

10-Day Weather Forecast

Almanac

Astronomy

Apr. 28, 2017 Rise Set
Actual Time
Civil Twilight
Nautical Twilight
Astronomical Twilight
Moon
Length of Visible Light
Length of Day
Tomorrow will be .
, % of the Moon is Illuminated

Today's Extremes

State Highs State Lows

Community

WunderPhotos

WunderBlog® & News

Nearby

Air Quality

  Air Quality AQ Index Pollutant
Not available.

Snow Depth

Station Depth Elevation

Earthquake Activity

City Distance Mag. Time & Date
Minimum magnitude displayed is 2.5.

Coastal Water Temperatures

Place Temperature

Stations

Nearby Weather Stations

Station Location Temp. Windchill Dew Point Humidity Wind Precip. Elev Updated Type
                   

Watches & Warnings

Frost Advisory
Issued: 9:14 PM CDT Apr. 27, 2017 – National Weather Service

... Frost advisory remains in effect from 1 am to 8 am CDT
Friday...

A frost advisory remains in effect from 1 am to 8 am CDT Friday.

* Frost is expected to occur tonight

* temperatures will drop into the low 30s.

* Areas where the growing season has begun could be exposed to
the frost and near freezing temperatures.

Precautionary/preparedness actions...

A frost advisory means that widespread frost is expected.
Sensitive outdoor plants may be killed if left uncovered.



Hentz